Time;durP1;ratioP1;P1;durP2;ratioP2;P2;SDS_P1;SDS_P2;PMS_P1;PMS_P2;Temp;Humidity;BMP_temperature;BMP_pressure;BME280_temperature;BME280_humidity;BME280_pressure;Samples;Min_cycle;Max_cycle;Signal;HPM_P1;HPM_P2
2024/01/29 00:03:53;;;;;;;18.30;6.40;;;;;;;1.78;100.00;101084.47;12216684;19;20014;-79
2024/01/29 00:07:57;;;;;;;12.82;6.40;;;;;;;1.80;100.00;101085.19;12186573;19;20011;-79
2024/01/29 00:11:59;;;;;;;13.93;6.13;;;;;;;1.79;100.00;101088.06;12202168;19;20010;-79
2024/01/29 00:16:02;;;;;;;11.85;5.30;;;;;;;1.75;100.00;101078.53;12211685;19;20010;-81
2024/01/29 00:20:05;;;;;;;13.27;5.70;;;;;;;1.74;100.00;101088.53;12199173;19;20091;-80
2024/01/29 00:24:06;;;;;;;11.57;5.72;;;;;;;1.73;100.00;101083.28;12219128;19;20030;-81
2024/01/29 00:28:09;;;;;;;12.23;5.80;;;;;;;1.71;100.00;101078.00;12219099;19;20446;-78
2024/01/29 00:32:11;;;;;;;13.40;5.00;;;;;;;1.70;100.00;101084.47;12196429;19;20011;-80
2024/01/29 00:36:13;;;;;;;11.13;5.10;;;;;;;1.66;100.00;101083.06;12217779;19;20056;-78
2024/01/29 00:40:15;;;;;;;8.70;4.80;;;;;;;1.60;100.00;101075.53;12222654;19;20006;-81
2024/01/29 00:44:17;;;;;;;11.47;5.20;;;;;;;1.55;100.00;101070.63;12198462;19;20018;-79
2024/01/29 00:48:21;;;;;;;12.45;5.38;;;;;;;1.52;100.00;101064.66;12225001;19;20015;-80
2024/01/29 00:52:28;;;;;;;13.18;5.28;;;;;;;1.47;100.00;101067.84;12222669;19;20015;-80
2024/01/29 00:56:31;;;;;;;10.85;4.95;;;;;;;1.41;100.00;101070.34;12197064;19;20018;-80
2024/01/29 01:00:34;;;;;;;10.15;5.00;;;;;;;1.40;100.00;101071.34;12219420;19;20497;-79
2024/01/29 01:04:38;;;;;;;10.48;5.00;;;;;;;1.38;100.00;101079.66;12199517;19;20461;-81
2024/01/29 01:08:40;;;;;;;10.93;4.47;;;;;;;1.40;100.00;101079.50;12212573;19;20355;-79
2024/01/29 01:12:42;;;;;;;11.80;5.65;;;;;;;1.42;100.00;101080.19;12215601;19;20036;-80
2024/01/29 01:16:44;;;;;;;11.90;5.50;;;;;;;1.41;100.00;101079.34;12206588;19;20014;-84
2024/01/29 01:20:46;;;;;;;11.03;5.03;;;;;;;1.38;100.00;101087.81;12253853;19;20010;-81
2024/01/29 01:24:48;;;;;;;12.67;4.77;;;;;;;1.38;100.00;101097.81;12211371;19;20006;-79
2024/01/29 01:28:50;;;;;;;11.40;5.03;;;;;;;1.34;100.00;101100.84;12189990;19;20010;-80
2024/01/29 01:32:52;;;;;;;11.80;5.22;;;;;;;1.34;100.00;101108.16;12210138;19;20015;-83
2024/01/29 01:36:54;;;;;;;12.13;5.63;;;;;;;1.28;100.00;101109.63;12209802;19;20115;-80
2024/01/29 01:40:57;;;;;;;15.50;5.68;;;;;;;1.24;100.00;101107.38;12189122;19;20010;-81
2024/01/29 01:45:06;;;;;;;9.80;5.65;;;;;;;1.22;100.00;101115.69;12225365;19;20151;-85
2024/01/29 01:49:10;;;;;;;13.50;5.65;;;;;;;1.22;100.00;101106.69;12247094;19;20299;-80
2024/01/29 01:53:13;;;;;;;13.15;4.97;;;;;;;1.24;100.00;101104.66;12207960;19;20780;-81
2024/01/29 01:57:16;;;;;;;11.90;5.33;;;;;;;1.25;100.00;101103.66;12230949;19;20354;-80
2024/01/29 02:01:20;;;;;;;12.25;6.10;;;;;;;1.24;100.00;101104.66;12208996;19;20015;-79
2024/01/29 02:05:22;;;;;;;14.60;5.25;;;;;;;1.24;100.00;101093.81;12191924;19;20746;-81
2024/01/29 02:09:24;;;;;;;14.47;5.80;;;;;;;1.22;100.00;101096.69;12214997;19;20029;-80
2024/01/29 02:13:26;;;;;;;14.55;6.13;;;;;;;1.23;100.00;101108.41;12219310;19;20017;-80
2024/01/29 02:17:28;;;;;;;14.10;5.63;;;;;;;1.23;100.00;101092.13;12194166;19;20010;-79
2024/01/29 02:21:30;;;;;;;12.23;6.47;;;;;;;1.23;100.00;101094.81;12218540;19;20027;-79
2024/01/29 02:25:33;;;;;;;13.97;5.70;;;;;;;1.23;100.00;101081.25;12229137;19;20014;-87
2024/01/29 02:29:36;;;;;;;11.23;5.80;;;;;;;1.28;100.00;101081.59;12252414;19;20027;-88
2024/01/29 02:33:40;;;;;;;10.68;6.05;;;;;;;1.31;100.00;101079.44;12273667;19;20031;-87
2024/01/29 02:37:42;;;;;;;11.83;5.87;;;;;;;1.34;100.00;101081.84;12214624;19;20017;-80
2024/01/29 02:41:44;;;;;;;12.20;6.07;;;;;;;1.39;100.00;101086.78;12203125;19;20006;-79
2024/01/29 02:45:48;;;;;;;17.15;7.13;;;;;;;1.43;100.00;101082.75;12213844;19;20014;-83
2024/01/29 02:49:50;;;;;;;15.90;7.57;;;;;;;1.46;100.00;101087.88;12191437;19;20015;-80
2024/01/29 02:53:52;;;;;;;15.90;7.97;;;;;;;1.52;100.00;101083.66;12218278;19;20018;-80
2024/01/29 02:57:54;;;;;;;15.30;6.45;;;;;;;1.55;100.00;101084.19;12217088;19;19999;-81
2024/01/29 03:01:57;;;;;;;18.73;7.80;;;;;;;1.63;100.00;101091.53;12185852;19;20022;-80
2024/01/29 03:05:58;;;;;;;9.25;4.95;;;;;;;1.66;100.00;101087.66;12201321;19;20027;-80
2024/01/29 03:10:00;;;;;;;14.27;6.70;;;;;;;1.71;100.00;101088.88;12219444;19;20378;-80
2024/01/29 03:14:02;;;;;;;13.93;6.60;;;;;;;1.75;100.00;101090.25;12197996;19;20553;-82
2024/01/29 03:18:04;;;;;;;15.13;7.25;;;;;;;1.78;100.00;101092.63;12229234;19;20039;-82
2024/01/29 03:22:06;;;;;;;16.58;8.43;;;;;;;1.81;100.00;101091.47;12227368;19;20022;-80
2024/01/29 03:26:08;;;;;;;18.97;6.90;;;;;;;1.81;100.00;101081.47;12206032;19;20054;-79
2024/01/29 03:30:11;;;;;;;18.45;7.50;;;;;;;1.82;100.00;101077.72;12218893;19;20008;-80
2024/01/29 03:34:14;;;;;;;17.23;7.18;;;;;;;1.88;100.00;101072.66;12216262;19;20014;-80
2024/01/29 03:38:16;;;;;;;18.88;8.20;;;;;;;1.92;100.00;101072.16;12198656;19;20034;-78
2024/01/29 03:42:19;;;;;;;13.30;7.13;;;;;;;1.95;100.00;101065.56;12223452;19;20827;-81
2024/01/29 03:46:21;;;;;;;14.73;7.50;;;;;;;1.96;100.00;101067.25;12213298;19;20362;-80
2024/01/29 03:50:22;;;;;;;20.23;8.38;;;;;;;1.97;100.00;101063.53;12186608;19;20076;-78
2024/01/29 03:54:24;;;;;;;14.93;6.80;;;;;;;1.97;100.00;101048.06;12218698;19;20014;-79
2024/01/29 03:58:26;;;;;;;22.70;8.07;;;;;;;1.98;100.00;101051.63;12215769;19;20006;-79
2024/01/29 04:02:28;;;;;;;20.00;7.67;;;;;;;1.99;100.00;101059.63;12194341;19;20525;-83
2024/01/29 04:06:30;;;;;;;13.20;6.97;;;;;;;1.96;100.00;101054.53;12209710;19;20014;-82
2024/01/29 04:10:33;;;;;;;17.17;8.05;;;;;;;1.92;100.00;101053.13;12208359;19;20489;-82
2024/01/29 04:14:38;;;;;;;14.50;6.93;;;;;;;1.88;100.00;101054.47;12184906;19;20407;-82
2024/01/29 04:18:43;;;;;;;16.90;7.90;;;;;;;1.86;100.00;101050.22;12206960;19;20011;-79
2024/01/29 04:22:45;;;;;;;22.40;8.10;;;;;;;1.83;100.00;101057.69;12186400;19;20018;-87
2024/01/29 04:26:47;;;;;;;14.80;7.45;;;;;;;1.81;100.00;101043.41;12207518;19;20017;-82
2024/01/29 04:30:48;;;;;;;15.77;8.10;;;;;;;1.81;100.00;101043.41;12212788;19;20045;-78
2024/01/29 04:34:51;;;;;;;17.60;7.13;;;;;;;1.79;100.00;101045.44;12199967;19;20010;-81
2024/01/29 04:38:56;;;;;;;17.05;8.30;;;;;;;1.77;100.00;101052.88;12247129;19;20204;-80
2024/01/29 04:42:58;;;;;;;19.63;8.00;;;;;;;1.72;100.00;101046.22;12212628;19;20476;-80
2024/01/29 04:47:00;;;;;;;16.42;8.82;;;;;;;1.65;100.00;101065.06;12192411;19;20445;-82
2024/01/29 04:51:06;;;;;;;22.63;9.00;;;;;;;1.54;100.00;101055.31;12206816;19;19998;-79
2024/01/29 04:55:08;;;;;;;21.15;9.13;;;;;;;1.46;100.00;101054.41;12206499;19;20002;-81
2024/01/29 04:59:12;;;;;;;22.80;8.23;;;;;;;1.42;100.00;101064.75;12183372;19;20006;-82
2024/01/29 05:03:14;;;;;;;13.88;5.82;;;;;;;1.37;100.00;101061.66;12204492;19;20127;-83
2024/01/29 05:07:22;;;;;;;21.48;8.65;;;;;;;1.35;100.00;101061.81;12212494;19;20020;-80
2024/01/29 05:11:25;;;;;;;22.55;8.70;;;;;;;1.36;100.00;101063.50;12191789;19;20014;-79
2024/01/29 05:15:27;;;;;;;18.60;7.40;;;;;;;1.36;100.00;101062.66;12208342;19;20332;-80
2024/01/29 05:19:30;;;;;;;18.23;8.35;;;;;;;1.34;100.00;101057.41;12212699;19;20019;-81
2024/01/29 05:23:32;;;;;;;18.52;8.65;;;;;;;1.32;100.00;101054.00;12191417;19;20066;-80
2024/01/29 05:27:35;;;;;;;17.83;9.43;;;;;;;1.28;100.00;101060.75;12215561;19;20609;-79
2024/01/29 05:31:37;;;;;;;22.70;9.88;;;;;;;1.27;100.00;101064.47;12212937;19;20079;-79
2024/01/29 05:35:39;;;;;;;21.17;9.23;;;;;;;1.25;100.00;101065.63;12220169;19;20027;-80
2024/01/29 05:39:42;;;;;;;20.42;9.23;;;;;;;1.24;100.00;101063.94;12211789;19;20833;-80
2024/01/29 05:43:44;;;;;;;18.73;9.73;;;;;;;1.23;100.00;101063.09;12180305;19;20034;-82
2024/01/29 05:47:46;;;;;;;19.63;9.20;;;;;;;1.24;100.00;101074.81;12202388;19;20062;-83
2024/01/29 05:51:48;;;;;;;18.05;9.45;;;;;;;1.24;100.00;101067.50;12199887;19;20006;-82
2024/01/29 05:55:50;;;;;;;20.33;10.00;;;;;;;1.25;100.00;101063.78;12180084;19;20094;-82
2024/01/29 05:59:53;;;;;;;25.35;10.00;;;;;;;1.27;100.00;101063.63;12200151;19;20342;-81
2024/01/29 06:03:55;;;;;;;19.50;9.38;;;;;;;1.27;100.00;101082.63;12200468;19;20009;-82
2024/01/29 06:07:56;;;;;;;19.50;9.87;;;;;;;1.28;100.00;101081.59;12183040;19;20451;-82
2024/01/29 06:11:59;;;;;;;21.02;9.43;;;;;;;1.29;100.00;101086.03;12202290;19;20014;-83
2024/01/29 06:16:01;;;;;;;21.33;10.45;;;;;;;1.28;100.00;101089.75;12204157;19;20015;-81
2024/01/29 06:20:04;;;;;;;20.10;10.60;;;;;;;1.27;100.00;101080.75;12180247;19;20038;-80
2024/01/29 06:24:19;;;;;;;23.92;11.85;;;;;;;1.27;100.00;101080.75;12203436;19;20007;-81
2024/01/29 06:28:23;;;;;;;25.48;11.80;;;;;;;1.26;100.00;101091.78;12201240;19;20002;-82
2024/01/29 06:32:25;;;;;;;23.13;12.17;;;;;;;1.24;100.00;101089.22;12179451;19;20010;-78
2024/01/29 06:36:27;;;;;;;29.90;14.23;;;;;;;1.25;100.00;101090.06;12201019;19;20333;-81
2024/01/29 06:40:29;;;;;;;43.93;17.97;;;;;;;1.24;100.00;101105.50;12204332;19;20011;-81
2024/01/29 06:44:31;;;;;;;26.23;11.80;;;;;;;1.22;100.00;101113.00;12190454;19;20018;-80
2024/01/29 06:48:36;;;;;;;33.70;15.90;;;;;;;1.20;100.00;101109.56;12217920;19;20021;-79
2024/01/29 06:52:38;;;;;;;32.47;14.18;;;;;;;1.20;100.00;101122.28;12189291;19;20006;-82
2024/01/29 06:56:40;;;;;;;24.83;12.13;;;;;;;1.18;100.00;101122.44;12209572;19;20015;-79
2024/01/29 07:00:42;;;;;;;23.00;10.82;;;;;;;1.19;100.00;101135.03;12209720;19;20925;-79
2024/01/29 07:04:44;;;;;;;20.23;9.73;;;;;;;1.22;100.00;101140.13;12185832;19;20031;-80
2024/01/29 07:08:46;;;;;;;25.23;11.23;;;;;;;1.23;100.00;101136.41;12212981;19;20003;-80
2024/01/29 07:12:48;;;;;;;21.15;9.85;;;;;;;1.24;100.00;101148.13;12210297;19;20037;-79
2024/01/29 07:16:50;;;;;;;22.77;11.10;;;;;;;1.27;100.00;101154.06;12194025;19;20055;-84
2024/01/29 07:20:52;;;;;;;21.27;11.13;;;;;;;1.26;100.00;101160.53;12217106;19;20029;-81
2024/01/29 07:24:54;;;;;;;22.30;9.73;;;;;;;1.29;100.00;101171.06;12216354;19;20024;-82
2024/01/29 07:28:55;;;;;;;23.13;9.10;;;;;;;1.30;100.00;101175.50;12188288;19;20035;-84
2024/01/29 07:33:01;;;;;;;20.67;9.85;;;;;;;1.34;100.00;101182.34;12208618;19;20466;-80
2024/01/29 07:37:03;;;;;;;22.33;9.77;;;;;;;1.41;100.00;101179.00;12205545;19;20006;-80
2024/01/29 07:41:06;;;;;;;22.07;10.60;;;;;;;1.46;100.00;101182.06;12186127;19;20466;-79
2024/01/29 07:45:08;;;;;;;20.40;9.20;;;;;;;1.53;100.00;101186.72;12209153;19;20239;-81
2024/01/29 07:49:10;;;;;;;19.43;9.30;;;;;;;1.66;100.00;101180.03;12209536;19;20010;-79
2024/01/29 07:53:12;;;;;;;17.35;9.32;;;;;;;1.76;100.00;101181.66;12208407;19;20017;-83
2024/01/29 07:57:15;;;;;;;16.75;7.85;;;;;;;1.89;100.00;101181.22;12209045;19;21501;-79
2024/01/29 08:01:18;;;;;;;19.20;7.75;;;;;;;2.02;100.00;101178.94;12210170;19;20010;-81
2024/01/29 08:05:21;;;;;;;15.60;8.10;;;;;;;2.13;100.00;101171.50;12180653;19;20010;-79
2024/01/29 08:09:26;;;;;;;13.23;7.65;;;;;;;2.26;100.00;101161.91;12209116;19;20223;-81
2024/01/29 08:13:28;;;;;;;20.27;7.93;;;;;;;2.40;100.00;101159.56;12210419;19;20010;-79
2024/01/29 08:17:31;;;;;;;15.85;7.93;;;;;;;2.57;100.00;101169.50;12185055;19;20705;-78
2024/01/29 08:21:33;;;;;;;13.53;7.17;;;;;;;2.64;100.00;101178.69;12206435;19;20667;-78
2024/01/29 08:25:40;;;;;;;14.90;8.30;;;;;;;2.84;100.00;101179.28;12188470;19;20259;-78
2024/01/29 08:29:45;;;;;;;13.88;7.95;;;;;;;3.00;100.00;101170.28;12204717;19;20014;-78
2024/01/29 08:33:47;;;;;;;16.80;7.85;;;;;;;3.19;100.00;101170.00;12205121;19;20048;-78
2024/01/29 08:37:49;;;;;;;15.90;7.73;;;;;;;3.35;100.00;101168.28;12183805;19;20014;-78
2024/01/29 08:41:52;;;;;;;;;;;;;;;3.49;100.00;101170.34;12205708;19;20031;-78
2024/01/29 08:45:54;;;;;;;12.87;5.67;;;;;;;3.64;100.00;101174.09;12206898;19;19915;-79
2024/01/29 08:49:57;;;;;;;16.58;7.50;;;;;;;3.75;100.00;101174.75;12184107;19;20010;-79
2024/01/29 08:54:00;;;;;;;14.77;6.75;;;;;;;3.87;100.00;101179.69;12211431;19;20034;-80
2024/01/29 08:58:04;;;;;;;13.73;7.28;;;;;;;4.01;100.00;101169.94;12213108;19;20054;-78
2024/01/29 09:02:13;;;;;;;15.13;7.53;;;;;;;4.16;100.00;101166.50;12229270;19;20007;-80
2024/01/29 09:06:15;;;;;;;13.95;7.10;;;;;;;4.20;100.00;101174.16;12257681;19;20003;-80
2024/01/29 09:10:17;;;;;;;14.82;7.85;;;;;;;4.30;100.00;101171.22;12244555;19;20010;-80
2024/01/29 09:14:22;;;;;;;12.70;7.47;;;;;;;4.39;100.00;101178.38;12201276;19;20007;-81
2024/01/29 09:18:24;;;;;;;14.13;7.60;;;;;;;4.49;100.00;101180.88;12215084;19;20003;-80
2024/01/29 09:22:26;;;;;;;12.73;7.05;;;;;;;4.61;100.00;101181.34;12216113;19;20030;-79
2024/01/29 09:26:28;;;;;;;15.90;8.18;;;;;;;4.73;100.00;101179.91;12182305;19;20497;-79
2024/01/29 09:30:30;;;;;;;15.38;7.65;;;;;;;4.85;100.00;101183.97;12200214;19;20120;-79
2024/01/29 09:34:36;;;;;;;17.45;7.43;;;;;;;4.99;100.00;101191.38;12206576;19;20010;-79
2024/01/29 09:38:39;;;;;;;14.80;7.65;;;;;;;5.09;100.00;101195.81;12180336;19;20856;-79
2024/01/29 09:42:43;;;;;;;15.07;8.07;;;;;;;5.21;100.00;101195.19;12205264;19;20011;-79
2024/01/29 09:46:48;;;;;;;15.45;7.20;;;;;;;5.31;100.00;101194.09;12183969;19;20031;-80
2024/01/29 09:50:53;;;;;;;13.63;7.65;;;;;;;5.44;100.00;101194.34;12202790;19;20062;-78
2024/01/29 09:54:56;;;;;;;13.63;7.88;;;;;;;5.45;99.02;101199.63;12204579;19;20026;-81
2024/01/29 09:58:58;;;;;;;15.93;8.77;;;;;;;5.55;99.14;101202.13;12178083;19;20038;-80
2024/01/29 10:03:19;;;;;;;16.35;8.05;;;;;;;5.67;98.10;101194.34;12198669;19;20019;-78
2024/01/29 10:07:22;;;;;;;15.02;7.95;;;;;;;5.68;96.69;101199.63;12197161;19;20015;-79
2024/01/29 10:11:24;;;;;;;14.65;7.60;;;;;;;5.91;96.87;101201.47;12176543;19;20007;-78
2024/01/29 10:15:27;;;;;;;12.90;7.67;;;;;;;6.04;94.58;101201.72;12200485;19;20013;-80
2024/01/29 10:19:37;;;;;;;15.55;8.35;;;;;;;6.16;92.77;101194.75;12198587;19;20015;-80
2024/01/29 10:23:39;;;;;;;15.60;7.53;;;;;;;6.22;92.97;101200.53;12177267;19;20062;-79
2024/01/29 10:27:43;;;;;;;12.10;7.30;;;;;;;6.29;91.53;101194.09;12199929;19;20070;-77
2024/01/29 10:31:46;;;;;;;16.67;8.43;;;;;;;6.51;92.76;101194.19;12176514;19;20011;-79
2024/01/29 10:35:49;;;;;;;17.42;7.72;;;;;;;6.60;90.30;101193.03;12201050;19;20391;-78
2024/01/29 10:39:55;;;;;;;16.25;8.10;;;;;;;6.75;91.01;101193.91;12199475;19;20098;-78
2024/01/29 10:44:04;;;;;;;16.73;8.75;;;;;;;6.90;90.45;101193.00;12178244;19;20055;-80
2024/01/29 10:48:22;;;;;;;13.80;7.30;;;;;;;7.04;88.70;101192.13;12205098;19;20816;-78
2024/01/29 10:52:26;;;;;;;13.43;7.55;;;;;;;7.15;88.24;101194.38;12204213;19;20011;-78
2024/01/29 10:56:30;;;;;;;13.15;7.22;;;;;;;7.29;88.61;101190.75;12182352;19;20011;-78
2024/01/29 11:00:35;;;;;;;16.45;8.25;;;;;;;7.45;87.93;101180.56;12203382;19;20010;-83
2024/01/29 11:04:37;;;;;;;14.57;8.00;;;;;;;7.61;87.07;101182.19;12207184;19;20014;-78
2024/01/29 11:08:45;;;;;;;12.98;8.13;;;;;;;7.79;86.83;101176.22;12192344;19;20010;-78
2024/01/29 11:12:51;;;;;;;13.02;7.80;;;;;;;7.99;85.97;101178.06;12226993;19;20007;-80
2024/01/29 11:16:54;;;;;;;15.18;7.82;;;;;;;8.16;84.52;101170.38;12220354;19;20010;-82
2024/01/29 11:20:56;;;;;;;12.70;7.17;;;;;;;8.32;83.37;101154.63;12231190;19;20015;-79
2024/01/29 11:24:58;;;;;;;14.50;8.40;;;;;;;8.50;82.07;101146.72;12215482;19;20006;-81
2024/01/29 11:29:03;;;;;;;8.02;5.20;;;;;;;8.71;81.80;101139.44;12186385;19;20023;-79
2024/01/29 11:33:14;;;;;;;15.55;8.00;;;;;;;8.99;81.51;101136.59;12208260;19;20019;-79
2024/01/29 11:37:29;;;;;;;11.93;7.57;;;;;;;9.27;80.32;101119.94;12211350;19;20024;-78
2024/01/29 11:41:33;;;;;;;16.00;7.45;;;;;;;9.56;80.45;101121.44;12189396;19;20181;-80
2024/01/29 11:45:36;;;;;;;15.82;7.70;;;;;;;9.80;79.30;101128.22;12213853;19;20512;-79
2024/01/29 11:49:38;;;;;;;;;;;;;;;10.01;78.18;101121.63;12212292;19;20017;-81
2024/01/29 11:53:43;;;;;;;10.85;6.75;;;;;;;10.21;77.86;101116.94;12196337;19;19950;-79
2024/01/29 11:57:52;;;;;;;13.73;6.72;;;;;;;10.40;75.91;101115.19;12216518;19;20087;-77
2024/01/29 12:01:54;;;;;;;13.63;7.63;;;;;;;10.49;76.03;101110.28;12190064;19;20017;-79
2024/01/29 12:05:56;;;;;;;14.55;7.20;;;;;;;10.79;75.39;101102.31;12212746;19;20052;-78
2024/01/29 12:09:59;;;;;;;11.32;7.57;;;;;;;11.21;72.74;101097.19;12218861;19;20027;-78
2024/01/29 12:14:02;;;;;;;13.50;8.80;;;;;;;11.68;70.44;101105.94;12196653;19;20011;-79
2024/01/29 12:18:09;;;;;;;10.95;8.18;;;;;;;12.10;69.25;101106.22;12213696;19;20813;-79
2024/01/29 12:22:14;;;;;;;13.35;8.13;;;;;;;12.54;69.26;101110.63;12216105;19;20034;-78
2024/01/29 12:26:25;;;;;;;11.20;8.07;;;;;;;12.69;65.03;101096.41;12194620;19;20010;-79
2024/01/29 12:30:27;;;;;;;10.68;6.97;;;;;;;12.90;65.94;101105.28;12216282;19;20070;-77
2024/01/29 12:34:29;;;;;;;10.67;7.10;;;;;;;13.19;61.91;101104.44;12217144;19;20029;-79
2024/01/29 12:38:32;;;;;;;13.00;7.85;;;;;;;13.53;61.48;101095.63;12191665;19;20023;-78
2024/01/29 12:42:33;;;;;;;;;;;;;;;13.83;60.17;101103.84;12211991;19;20096;-78
2024/01/29 12:46:36;;;;;;;12.30;6.97;;;;;;;14.19;59.59;101097.25;12215243;19;19910;-78
2024/01/29 12:50:41;;;;;;;11.70;7.57;;;;;;;14.46;60.39;101097.56;12204781;19;20022;-81
2024/01/29 12:54:47;;;;;;;11.38;7.78;;;;;;;14.88;57.41;101088.19;12245077;19;20010;-80
2024/01/29 12:58:49;;;;;;;10.35;6.88;;;;;;;15.18;56.77;101085.16;12246695;19;20017;-81
2024/01/29 13:02:51;;;;;;;9.40;7.37;;;;;;;15.41;55.58;101073.91;12228710;19;20075;-79
2024/01/29 13:06:58;;;;;;;11.30;7.22;;;;;;;15.68;53.10;101076.06;12244846;19;20011;-83
2024/01/29 13:11:00;;;;;;;11.23;7.97;;;;;;;15.65;52.98;101068.19;12211334;19;20014;-80
2024/01/29 13:15:02;;;;;;;10.73;7.47;;;;;;;14.89;54.67;101068.50;12224891;19;20721;-83
2024/01/29 13:19:07;;;;;;;11.10;7.60;;;;;;;14.21;55.05;101063.72;12232388;19;20022;-81
2024/01/29 13:23:12;;;;;;;11.98;7.38;;;;;;;13.64;55.80;101070.72;12207559;19;20043;-79
2024/01/29 13:27:15;;;;;;;13.07;6.72;;;;;;;13.18;56.56;101064.00;12211899;19;20101;-78
2024/01/29 13:31:19;;;;;;;10.57;6.57;;;;;;;12.78;57.53;101066.50;12208853;19;20600;-81
2024/01/29 13:35:21;;;;;;;11.50;6.23;;;;;;;12.53;58.74;101061.94;12187903;19;20091;-81
2024/01/29 13:39:23;;;;;;;11.83;6.07;;;;;;;12.41;58.72;101054.66;12216573;19;20010;-83
2024/01/29 13:43:27;;;;;;;12.00;6.35;;;;;;;12.22;58.95;101057.41;12214113;19;20003;-82
2024/01/29 13:47:29;;;;;;;8.60;5.63;;;;;;;11.97;59.53;101059.41;12189365;19;20026;-80
2024/01/29 13:51:31;;;;;;;9.50;5.67;;;;;;;11.72;59.89;101065.78;12206639;19;20007;-79
2024/01/29 13:55:33;;;;;;;10.38;5.82;;;;;;;11.69;60.06;101055.22;12209490;19;20003;-82
2024/01/29 13:59:35;;;;;;;8.95;5.38;;;;;;;11.55;60.43;101056.38;12186065;19;20467;-80
2024/01/29 14:03:39;;;;;;;8.23;5.15;;;;;;;11.57;60.43;101057.84;12205813;19;20010;-81
2024/01/29 14:07:41;;;;;;;10.02;5.57;;;;;;;11.61;60.70;101061.84;12205347;19;20007;-79
2024/01/29 14:11:47;;;;;;;13.10;6.13;;;;;;;11.67;61.42;101062.88;12179651;19;20010;-79
2024/01/29 14:15:50;;;;;;;11.38;6.95;;;;;;;11.77;61.37;101057.66;12208327;19;20021;-82
2024/01/29 14:19:52;;;;;;;12.40;6.60;;;;;;;11.74;61.70;101065.56;12179253;19;20641;-81
2024/01/29 14:23:59;;;;;;;13.07;6.72;;;;;;;11.71;62.41;101064.09;12204023;19;20074;-80
2024/01/29 14:28:02;;;;;;;12.85;7.05;;;;;;;11.64;62.71;101063.31;12205585;19;20006;-79
2024/01/29 14:32:04;;;;;;;11.17;6.33;;;;;;;11.54;63.10;101069.34;12181732;19;20078;-80
2024/01/29 14:36:06;;;;;;;10.83;6.13;;;;;;;11.43;63.54;101072.84;12202987;19;20260;-79
2024/01/29 14:40:09;;;;;;;13.98;7.20;;;;;;;11.24;64.08;101069.16;12205633;19;20025;-82
2024/01/29 14:44:12;;;;;;;11.88;6.55;;;;;;;11.11;64.68;101064.56;12186712;19;20501;-79
2024/01/29 14:48:14;;;;;;;13.10;7.00;;;;;;;10.98;65.34;101069.34;12250892;19;19999;-84
2024/01/29 14:52:17;;;;;;;11.75;6.75;;;;;;;10.86;65.70;101072.81;12226053;19;20021;-81
2024/01/29 14:56:19;;;;;;;11.87;7.30;;;;;;;10.74;66.14;101074.59;12184654;19;20033;-82
2024/01/29 15:00:21;;;;;;;12.05;7.13;;;;;;;10.65;66.57;101071.22;12203235;19;20018;-88
2024/01/29 15:04:24;;;;;;;13.70;7.65;;;;;;;10.52;67.11;101073.19;12212426;19;20018;-82
2024/01/29 15:08:27;;;;;;;13.55;7.78;;;;;;;10.41;67.64;101072.81;12196625;19;20014;-81
2024/01/29 15:12:29;;;;;;;14.43;7.07;;;;;;;10.35;67.83;101081.09;12216660;19;20006;-82
2024/01/29 15:16:31;;;;;;;11.13;7.53;;;;;;;10.25;68.33;101087.03;12228933;19;20058;-80
2024/01/29 15:20:34;;;;;;;17.58;9.40;;;;;;;10.08;69.10;101080.28;12190433;19;20010;-79
2024/01/29 15:24:36;;;;;;;19.45;8.68;;;;;;;9.89;70.05;101082.03;12221738;19;20006;-80
2024/01/29 15:28:38;;;;;;;22.23;11.77;;;;;;;9.70;71.48;101072.75;12227011;19;20007;-80
2024/01/29 15:32:41;;;;;;;25.08;13.55;;;;;;;9.56;72.93;101078.25;12198903;19;20053;-81
2024/01/29 15:36:43;;;;;;;23.45;10.80;;;;;;;9.40;73.89;101069.56;12219883;19;20006;-83
2024/01/29 15:40:53;;;;;;;18.63;9.07;;;;;;;9.20;75.05;101067.66;12220882;19;20022;-78
2024/01/29 15:44:55;;;;;;;16.13;8.02;;;;;;;9.05;76.22;101072.53;12201002;19;20010;-80
2024/01/29 15:48:57;;;;;;;17.73;8.90;;;;;;;8.88;77.26;101080.28;12223790;19;20021;-83
2024/01/29 15:52:59;;;;;;;16.75;8.93;;;;;;;8.71;78.20;101084.47;12201718;19;20254;-80
2024/01/29 15:57:05;;;;;;;18.57;9.57;;;;;;;8.53;79.13;101082.28;12224207;19;20122;-82
2024/01/29 16:01:07;;;;;;;14.90;8.73;;;;;;;8.31;80.41;101081.53;12225616;19;20433;-80
2024/01/29 16:05:09;;;;;;;22.97;10.10;;;;;;;8.13;81.38;101088.41;12206563;19;20015;-82
2024/01/29 16:09:11;;;;;;;21.50;8.93;;;;;;;7.95;82.14;101094.44;12240863;19;20015;-79
2024/01/29 16:13:15;;;;;;;22.00;8.68;;;;;;;7.80;83.08;101084.63;12225357;19;20024;-81
2024/01/29 16:17:17;;;;;;;16.40;8.70;;;;;;;7.61;83.53;101089.75;12193904;19;20010;-82
2024/01/29 16:21:21;;;;;;;14.93;7.87;;;;;;;7.43;84.75;101086.66;12225696;19;20509;-81
2024/01/29 16:25:23;;;;;;;15.85;7.88;;;;;;;7.29;85.26;101092.03;12225644;19;20565;-81
2024/01/29 16:29:26;;;;;;;14.27;8.07;;;;;;;7.16;86.14;101100.13;12204707;19;20070;-81
2024/01/29 16:33:30;;;;;;;16.38;8.07;;;;;;;7.01;86.74;101099.34;12223810;19;20360;-79
2024/01/29 16:37:32;;;;;;;16.38;7.57;;;;;;;6.91;87.47;101101.56;12225228;19;20087;-82
2024/01/29 16:41:34;;;;;;;16.73;8.23;;;;;;;6.82;88.17;101109.06;12202185;19;20006;-82
2024/01/29 16:45:36;;;;;;;14.18;7.93;;;;;;;6.72;88.50;101095.69;12236966;19;20263;-86
2024/01/29 16:49:41;;;;;;;14.37;7.13;;;;;;;6.68;89.22;101102.56;12257472;19;20067;-80
2024/01/29 16:53:45;;;;;;;14.63;8.40;;;;;;;6.59;89.98;101110.03;12227949;19;20074;-82
2024/01/29 16:57:47;;;;;;;16.30;8.45;;;;;;;6.53;90.26;101112.69;12251618;19;20017;-78
2024/01/29 17:01:48;;;;;;;16.38;7.63;;;;;;;6.48;91.03;101109.69;12236720;19;20014;-81
2024/01/29 17:05:50;;;;;;;15.57;7.60;;;;;;;6.38;91.63;101110.81;12186242;19;20007;-81
2024/01/29 17:09:52;;;;;;;8.73;4.78;;;;;;;6.32;92.24;101108.84;12207008;19;20027;-81
2024/01/29 17:13:54;;;;;;;12.33;7.23;;;;;;;6.30;92.31;101107.34;12194498;19;20014;-81
2024/01/29 17:17:58;;;;;;;13.00;8.00;;;;;;;6.29;92.85;101106.50;12208635;19;20010;-81
2024/01/29 17:22:00;;;;;;;14.07;7.63;;;;;;;6.30;93.06;101107.34;12205201;19;20018;-81
2024/01/29 17:26:02;;;;;;;14.77;8.00;;;;;;;6.28;93.68;101104.81;12186400;19;20010;-83
2024/01/29 17:30:05;;;;;;;15.95;8.40;;;;;;;6.27;94.15;101103.09;12204337;19;20006;-82
2024/01/29 17:34:08;;;;;;;15.60;7.72;;;;;;;6.28;94.32;101114.91;12207539;19;20022;-83
2024/01/29 17:38:10;;;;;;;14.30;7.43;;;;;;;6.27;94.87;101114.03;12185836;19;20520;-83
2024/01/29 17:42:13;;;;;;;13.07;7.03;;;;;;;6.27;95.50;101116.78;12208407;19;20018;-82
2024/01/29 17:46:17;;;;;;;13.77;7.30;;;;;;;6.28;95.69;101121.25;12207134;19;20031;-82
2024/01/29 17:50:20;;;;;;;13.65;7.45;;;;;;;6.24;95.96;101108.94;12178946;19;20042;-79
2024/01/29 17:54:22;;;;;;;12.85;7.80;;;;;;;6.19;96.17;101114.16;12203103;19;20026;-81
2024/01/29 17:58:24;;;;;;;14.40;7.05;;;;;;;6.19;96.66;101121.50;12202127;19;20010;-82
2024/01/29 18:02:26;;;;;;;10.63;6.10;;;;;;;6.18;97.01;101120.66;12177276;19;20470;-82
2024/01/29 18:06:28;;;;;;;10.27;6.55;;;;;;;6.18;97.54;101120.66;12200274;19;20029;-83
2024/01/29 18:10:30;;;;;;;13.40;6.90;;;;;;;6.18;97.65;101128.88;12199918;19;20466;-83
2024/01/29 18:14:32;;;;;;;15.43;6.03;;;;;;;6.18;97.64;101117.91;12179925;19;19998;-81
2024/01/29 18:18:34;;;;;;;10.02;6.13;;;;;;;6.15;97.70;101115.56;12224817;19;20026;-76
2024/01/29 18:22:36;;;;;;;13.82;6.13;;;;;;;6.13;98.06;101123.13;12221921;19;20094;-81
2024/01/29 18:26:39;;;;;;;13.37;7.57;;;;;;;6.15;98.33;101118.31;12174307;19;20027;-80
2024/01/29 18:30:41;;;;;;;;;;;;;;;6.14;99.00;101114.72;12207784;19;20007;-80